Time;durP1;ratioP1;P1;durP2;ratioP2;P2;SDS_P1;SDS_P2;PMS_P1;PMS_P2;Temp;Humidity;BMP_temperature;BMP_pressure;BME280_temperature;BME280_humidity;BME280_pressure;Samples;Min_cycle;Max_cycle;Signal;HPM_P1;HPM_P2
2022/09/21 00:01:11;;;;;;;3.53;2.70;;;8.90;99.90;;;;;;4979854;28;89245;-32
2022/09/21 00:03:40;;;;;;;4.45;2.30;;;8.90;99.90;;;;;;4979234;28;89644;-32
2022/09/21 00:06:07;;;;;;;;;;;8.90;99.90;;;;;;4980273;28;88746;-31
2022/09/21 00:08:33;;;;;;;6.95;3.20;;;8.90;99.90;;;;;;4980910;28;90721;-32
2022/09/21 00:10:59;;;;;;;2.42;2.20;;;8.90;99.90;;;;;;4978535;28;90986;-33
2022/09/21 00:13:27;;;;;;;7.75;2.90;;;8.90;99.90;;;;;;4978903;28;89386;-32
2022/09/21 00:15:55;;;;;;;4.07;2.72;;;8.90;99.90;;;;;;4979631;28;89679;-31
2022/09/21 00:18:22;;;;;;;6.85;3.20;;;8.90;99.90;;;;;;4979140;28;90644;-30
2022/09/21 00:20:48;;;;;;;5.57;2.90;;;8.90;99.90;;;;;;4979176;28;88594;-31
2022/09/21 00:23:13;;;;;;;3.28;2.42;;;8.90;99.90;;;;;;4978986;28;89815;-35
2022/09/21 00:25:39;;;;;;;3.83;2.78;;;8.90;99.90;;;;;;4978950;28;90332;-33
2022/09/21 00:28:05;;;;;;;6.72;2.80;;;8.90;99.90;;;;;;4978534;28;90410;-32
2022/09/21 00:30:30;;;;;;;8.35;3.08;;;8.90;99.90;;;;;;4978982;28;89948;-34
2022/09/21 00:32:56;;;;;;;3.80;2.47;;;8.80;99.90;;;;;;4978765;28;89581;-32
2022/09/21 00:35:22;;;;;;;2.75;2.55;;;8.80;99.90;;;;;;4978001;28;88615;-32
2022/09/21 00:37:47;;;;;;;3.00;2.45;;;8.80;99.90;;;;;;4978532;28;89928;-31
2022/09/21 00:40:13;;;;;;;2.67;2.22;;;8.80;99.90;;;;;;4981637;28;90198;-31
2022/09/21 00:42:39;;;;;;;8.18;2.38;;;8.80;99.90;;;;;;5019816;22;90511;-32
2022/09/21 00:45:05;;;;;;;2.58;2.00;;;8.70;99.90;;;;;;5001912;28;87566;-30
2022/09/21 00:47:36;;;;;;;9.70;2.70;;;8.70;99.90;;;;;;5002211;28;89205;-32
2022/09/21 00:50:07;;;;;;;6.25;3.25;;;8.70;99.90;;;;;;5001590;28;90149;-35
2022/09/21 00:52:36;;;;;;;4.85;1.83;;;8.70;99.90;;;;;;5002313;28;89628;-31
2022/09/21 00:55:13;;;;;;;3.92;2.08;;;8.70;99.90;;;;;;5002309;28;89491;-33
2022/09/21 00:57:39;;;;;;;7.20;2.47;;;8.70;99.90;;;;;;5001783;28;90713;-32
2022/09/21 01:00:08;;;;;;;6.03;2.38;;;8.70;99.90;;;;;;5000275;28;90992;-31
2022/09/21 01:02:35;;;;;;;9.95;2.38;;;8.70;99.90;;;;;;5001099;28;91988;-31
2022/09/21 01:05:03;;;;;;;2.55;1.80;;;8.80;99.90;;;;;;5002547;28;89957;-35
2022/09/21 01:07:32;;;;;;;4.70;2.80;;;8.80;99.90;;;;;;5001316;28;90189;-33
2022/09/21 01:10:04;;;;;;;2.97;2.45;;;8.80;99.90;;;;;;5002132;28;89174;-33
2022/09/21 01:12:52;;;;;;;5.03;2.45;;;8.80;99.90;;;;;;5000973;28;89312;-33
2022/09/21 01:15:54;;;;;;;11.18;2.97;;;8.70;99.90;;;;;;5001002;28;89739;-30
2022/09/21 01:18:50;;;;;;;10.95;2.30;;;8.70;99.90;;;;;;5001918;28;89782;-30
2022/09/21 01:21:20;;;;;;;9.77;2.47;;;8.70;99.90;;;;;;5001490;28;89096;-30
2022/09/21 01:24:11;;;;;;;4.03;1.67;;;8.60;99.90;;;;;;5001183;28;91356;-33
2022/09/21 01:27:06;;;;;;;6.00;2.20;;;8.50;99.90;;;;;;5001725;28;90284;-30
2022/09/21 01:29:34;;;;;;;7.45;1.92;;;8.50;99.90;;;;;;5001432;28;90981;-31
2022/09/21 01:32:15;;;;;;;3.60;1.98;;;8.50;99.90;;;;;;5001827;28;89661;-31
2022/09/21 01:34:49;;;;;;;5.20;2.08;;;8.50;99.90;;;;;;5001364;28;89912;-30
2022/09/21 01:37:22;;;;;;;1.58;1.40;;;8.40;99.90;;;;;;5001182;28;89567;-34
2022/09/21 01:39:53;;;;;;;10.35;2.72;;;8.40;99.90;;;;;;5001093;28;90217;-31
2022/09/21 01:42:21;;;;;;;11.07;2.60;;;8.40;99.90;;;;;;5000749;28;90373;-34
2022/09/21 01:44:49;;;;;;;10.05;1.90;;;8.40;99.90;;;;;;5001490;28;89007;-31
2022/09/21 01:47:16;;;;;;;5.03;1.77;;;8.40;99.90;;;;;;5000521;28;88957;-31
2022/09/21 01:49:49;;;;;;;3.72;1.98;;;8.40;99.90;;;;;;5001509;28;90303;-30
2022/09/21 01:52:40;;;;;;;4.15;2.22;;;8.40;99.90;;;;;;5000052;28;90636;-30
2022/09/21 01:55:15;;;;;;;2.88;1.85;;;8.40;99.90;;;;;;5001602;28;88988;-32
2022/09/21 01:57:56;;;;;;;7.85;2.35;;;8.40;99.90;;;;;;5001214;28;88175;-30
2022/09/21 02:00:24;;;;;;;3.80;2.05;;;8.30;99.90;;;;;;5000258;28;89715;-32
2022/09/21 02:02:57;;;;;;;4.57;2.42;;;8.30;99.90;;;;;;5000448;28;88794;-34
2022/09/21 02:05:25;;;;;;;9.40;2.53;;;8.30;99.90;;;;;;5000597;28;90783;-32
2022/09/21 02:07:52;;;;;;;3.72;2.75;;;8.20;99.90;;;;;;5000815;28;88397;-34
2022/09/21 02:10:38;;;;;;;6.25;2.55;;;8.20;99.90;;;;;;5000837;28;89722;-30
2022/09/21 02:13:05;;;;;;;2.65;2.10;;;8.20;99.90;;;;;;5000905;28;90038;-32
2022/09/21 02:16:05;;;;;;;7.53;2.88;;;8.10;99.90;;;;;;5000933;28;89388;-29
2022/09/21 02:18:42;;;;;;;5.80;2.45;;;8.10;99.90;;;;;;4999996;28;88206;-34
2022/09/21 02:21:41;;;;;;;3.85;1.42;;;8.10;99.90;;;;;;5000820;28;90761;-30
2022/09/21 02:24:21;;;;;;;2.08;1.55;;;7.90;99.90;;;;;;4993782;28;89736;-30
2022/09/21 02:27:04;;;;;;;2.45;1.75;;;7.80;99.90;;;;;;5000754;28;89965;-33
2022/09/21 02:29:42;;;;;;;2.42;1.70;;;7.70;99.90;;;;;;5000943;28;89670;-31
2022/09/21 02:32:26;;;;;;;1.80;1.40;;;7.60;99.90;;;;;;5000404;28;90115;-34
2022/09/21 02:35:10;;;;;;;1.25;1.15;;;7.50;99.90;;;;;;5000953;28;89594;-30
2022/09/21 02:37:57;;;;;;;1.17;1.02;;;7.40;99.90;;;;;;5000204;28;89057;-30
2022/09/21 02:40:29;;;;;;;3.15;2.17;;;7.40;99.90;;;;;;4999993;28;88878;-32
2022/09/21 02:43:14;;;;;;;3.58;1.70;;;7.30;99.90;;;;;;4999503;28;90244;-31
2022/09/21 02:45:50;;;;;;;5.97;1.65;;;7.30;99.90;;;;;;4999837;28;90006;-35
2022/09/21 02:48:28;;;;;;;1.70;1.15;;;7.30;99.90;;;;;;5000803;28;89642;-30
2022/09/21 02:50:58;;;;;;;1.35;1.00;;;7.20;99.90;;;;;;5000968;28;88632;-30
2022/09/21 02:53:27;;;;;;;1.58;1.48;;;7.10;99.90;;;;;;5000022;28;90401;-30
2022/09/21 02:55:57;;;;;;;2.08;1.45;;;7.00;99.90;;;;;;4982419;28;89656;-31
2022/09/21 02:58:26;;;;;;;3.10;1.90;;;7.00;99.90;;;;;;4999762;28;89636;-31
2022/09/21 03:00:53;;;;;;;5.97;1.98;;;7.00;99.90;;;;;;4999748;28;90026;-31
2022/09/21 03:03:22;;;;;;;6.30;1.60;;;7.00;99.90;;;;;;4999691;28;89113;-30
2022/09/21 03:05:49;;;;;;;4.35;1.58;;;6.90;99.90;;;;;;4999225;28;89491;-32
2022/09/21 03:08:16;;;;;;;2.23;2.03;;;6.90;99.90;;;;;;4999514;28;89429;-29
2022/09/21 03:10:42;;;;;;;3.00;2.17;;;6.90;99.90;;;;;;5000271;28;89832;-30
2022/09/21 03:13:09;;;;;;;5.60;1.92;;;6.80;99.90;;;;;;4999735;28;90027;-30
2022/09/21 03:15:36;;;;;;;3.70;2.28;;;6.80;99.90;;;;;;5000738;28;90184;-30
2022/09/21 03:18:03;;;;;;;3.40;1.88;;;6.80;99.90;;;;;;5000222;28;89456;-32
2022/09/21 03:20:31;;;;;;;2.03;1.10;;;6.80;99.90;;;;;;4999812;28;88647;-32
2022/09/21 03:22:57;;;;;;;2.73;1.43;;;6.70;99.90;;;;;;4999776;28;91531;-30
2022/09/21 03:25:23;;;;;;;3.45;1.88;;;6.70;99.90;;;;;;4999854;28;90015;-32
2022/09/21 03:27:52;;;;;;;2.10;1.77;;;6.70;99.90;;;;;;4999309;28;89380;-33
2022/09/21 03:30:17;;;;;;;2.78;1.65;;;6.70;99.90;;;;;;4999434;28;88678;-31
2022/09/21 03:32:43;;;;;;;4.28;1.42;;;6.60;99.90;;;;;;4999788;28;90238;-31
2022/09/21 03:35:08;;;;;;;4.25;1.52;;;6.60;99.90;;;;;;4998901;28;91251;-32
2022/09/21 03:37:34;;;;;;;2.88;1.83;;;6.60;99.90;;;;;;4999329;28;90673;-29
2022/09/21 03:39:59;;;;;;;5.82;2.33;;;6.70;99.90;;;;;;5000100;28;88521;-29
2022/09/21 03:42:25;;;;;;;2.97;1.63;;;6.60;99.90;;;;;;4998020;28;90286;-30
2022/09/21 03:44:51;;;;;;;4.32;2.65;;;6.60;99.90;;;;;;4999307;28;89578;-32
2022/09/21 03:47:16;;;;;;;2.13;1.85;;;6.60;99.90;;;;;;4998667;28;89093;-32
2022/09/21 03:49:42;;;;;;;3.92;1.60;;;6.60;99.90;;;;;;5000096;28;87618;-32
2022/09/21 03:52:07;;;;;;;4.28;2.17;;;6.60;99.90;;;;;;4999068;28;92398;-36
2022/09/21 03:54:33;;;;;;;5.22;2.15;;;6.60;99.90;;;;;;4998827;28;90210;-33
2022/09/21 03:56:58;;;;;;;2.17;1.55;;;6.70;99.90;;;;;;4999286;28;91612;-32
2022/09/21 03:59:24;;;;;;;4.25;1.80;;;6.60;99.90;;;;;;4998269;28;89588;-31
2022/09/21 04:01:50;;;;;;;7.50;2.05;;;6.60;99.90;;;;;;4999128;28;89834;-32
2022/09/21 04:04:15;;;;;;;2.88;2.00;;;6.60;99.90;;;;;;4998319;28;90505;-33
2022/09/21 04:06:41;;;;;;;2.15;1.80;;;6.60;99.90;;;;;;4999352;28;89392;-30
2022/09/21 04:09:07;;;;;;;6.35;1.67;;;6.60;99.90;;;;;;4999009;28;90026;-32
2022/09/21 04:11:33;;;;;;;2.97;1.92;;;6.50;99.90;;;;;;4998699;28;90258;-34
2022/09/21 04:13:59;;;;;;;6.00;2.17;;;6.50;99.90;;;;;;5000818;28;89705;-32
2022/09/21 04:16:25;;;;;;;4.18;2.10;;;6.50;99.90;;;;;;5002595;28;88672;-29
2022/09/21 04:18:51;;;;;;;5.72;1.98;;;6.50;99.90;;;;;;5002567;28;88703;-33
2022/09/21 04:21:17;;;;;;;3.13;1.83;;;6.50;99.90;;;;;;5002474;28;90111;-29
2022/09/21 04:23:43;;;;;;;5.90;2.53;;;6.40;99.90;;;;;;5001119;28;90391;-29
2022/09/21 04:26:31;;;;;;;3.00;1.50;;;6.40;99.90;;;;;;5003138;28;90479;-29
2022/09/21 04:28:58;;;;;;;5.13;1.90;;;6.40;99.90;;;;;;5002763;28;88320;-30
2022/09/21 04:31:25;;;;;;;1.20;1.10;;;6.40;99.90;;;;;;5001815;28;90216;-31
2022/09/21 04:33:53;;;;;;;5.50;1.83;;;6.30;99.90;;;;;;5002110;28;89620;-32
2022/09/21 04:36:20;;;;;;;1.45;1.35;;;6.20;99.90;;;;;;5002378;28;89872;-34
2022/09/21 04:38:46;;;;;;;2.10;1.52;;;6.10;99.90;;;;;;5002700;28;88573;-31
2022/09/21 04:41:12;;;;;;;19.90;2.38;;;6.10;99.90;;;;;;5002220;28;90575;-32
2022/09/21 04:43:40;;;;;;;2.30;1.75;;;6.10;99.90;;;;;;5001986;28;88546;-33
2022/09/21 04:46:07;;;;;;;;;;;6.00;99.90;;;;;;5003575;28;90243;-33
2022/09/21 04:48:32;;;;;;;4.43;3.17;;;6.00;99.90;;;;;;5003144;28;89504;-30
2022/09/21 04:50:58;;;;;;;6.82;2.92;;;6.00;99.90;;;;;;5001910;28;90316;-30
2022/09/21 04:53:24;;;;;;;3.55;2.55;;;6.00;99.90;;;;;;5001305;28;90283;-28
2022/09/21 04:55:50;;;;;;;2.80;1.75;;;6.00;99.90;;;;;;5001592;28;89845;-29
2022/09/21 04:58:15;;;;;;;2.05;1.85;;;6.00;99.90;;;;;;5002393;28;88187;-30
2022/09/21 05:00:41;;;;;;;3.00;1.45;;;5.90;99.90;;;;;;5001918;28;89775;-30
2022/09/21 05:03:06;;;;;;;2.70;2.05;;;5.90;99.90;;;;;;5002106;28;89634;-34
2022/09/21 05:05:32;;;;;;;4.20;1.80;;;5.90;99.90;;;;;;5001626;28;89547;-31
2022/09/21 05:07:58;;;;;;;4.13;2.20;;;5.80;99.90;;;;;;5001443;28;89445;-34
2022/09/21 05:10:24;;;;;;;2.22;1.48;;;5.80;99.90;;;;;;5002117;28;89517;-28
2022/09/21 05:12:51;;;;;;;3.92;1.90;;;5.80;99.90;;;;;;5001386;28;90278;-28
2022/09/21 05:15:17;;;;;;;7.20;2.00;;;5.80;99.90;;;;;;5001678;28;90366;-29
2022/09/21 05:17:43;;;;;;;6.82;2.67;;;5.80;99.90;;;;;;5001896;28;88754;-31
2022/09/21 05:20:09;;;;;;;2.33;1.98;;;5.80;99.90;;;;;;5001135;28;90208;-28
2022/09/21 05:22:35;;;;;;;2.95;1.70;;;5.80;99.90;;;;;;5001425;28;90541;-30
2022/09/21 05:25:01;;;;;;;7.85;2.50;;;5.80;99.90;;;;;;5001348;28;89405;-29
2022/09/21 05:27:26;;;;;;;6.78;2.85;;;5.80;99.90;;;;;;5001601;28;89865;-34
2022/09/21 05:29:52;;;;;;;3.38;2.42;;;5.80;99.90;;;;;;5001980;28;89110;-29
2022/09/21 05:32:39;;;;;;;6.70;2.55;;;5.80;99.90;;;;;;5000783;28;89624;-30
2022/09/21 05:35:31;;;;;;;14.55;3.05;;;5.80;99.90;;;;;;5001569;28;88289;-29
2022/09/21 05:38:15;;;;;;;8.18;2.80;;;5.80;99.90;;;;;;5001027;28;90276;-30
2022/09/21 05:40:41;;;;;;;6.25;2.50;;;5.90;99.90;;;;;;5000942;28;90349;-31
2022/09/21 05:43:08;;;;;;;3.35;2.67;;;5.90;99.90;;;;;;5000913;28;89402;-32
2022/09/21 05:45:35;;;;;;;4.07;2.22;;;5.90;99.90;;;;;;5000676;28;87837;-30
2022/09/21 05:48:20;;;;;;;5.90;2.75;;;5.90;99.90;;;;;;5000862;28;88816;-34
2022/09/21 05:50:56;;;;;;;3.53;1.85;;;5.90;99.90;;;;;;4983249;28;90116;-32
2022/09/21 05:53:55;;;;;;;3.97;2.15;;;5.90;99.90;;;;;;5000669;28;90013;-29
2022/09/21 05:56:52;;;;;;;2.58;2.03;;;5.90;99.90;;;;;;5001495;28;89090;-29
2022/09/21 05:59:54;;;;;;;2.60;2.30;;;6.00;99.90;;;;;;4995559;28;90087;-29
2022/09/21 06:02:39;;;;;;;2.17;1.80;;;6.00;99.90;;;;;;5000197;28;90438;-32
2022/09/21 06:05:10;;;;;;;7.03;2.35;;;6.00;99.90;;;;;;5000556;28;90510;-31
2022/09/21 06:07:35;;;;;;;2.83;2.00;;;6.10;99.90;;;;;;5001124;28;88916;-30
2022/09/21 06:10:01;;;;;;;6.55;3.70;;;6.10;99.90;;;;;;5000203;28;88393;-32
2022/09/21 06:12:27;;;;;;;6.03;4.13;;;6.10;99.90;;;;;;5000721;28;90189;-32
2022/09/21 06:14:52;;;;;;;6.50;3.85;;;6.20;99.90;;;;;;5000352;28;90712;-29
2022/09/21 06:17:18;;;;;;;4.72;3.20;;;6.30;99.90;;;;;;5000818;28;88669;-29
2022/09/21 06:19:44;;;;;;;9.13;2.88;;;6.30;99.90;;;;;;5001762;28;87597;-30
2022/09/21 06:22:09;;;;;;;3.38;2.88;;;6.40;99.90;;;;;;4998852;28;90434;-31
2022/09/21 06:24:35;;;;;;;8.50;3.45;;;6.40;99.90;;;;;;4998704;28;89830;-31
2022/09/21 06:27:00;;;;;;;3.20;2.53;;;6.50;99.90;;;;;;4997221;28;90351;-32
2022/09/21 06:29:26;;;;;;;2.83;2.28;;;6.50;99.90;;;;;;4998615;28;89843;-32
2022/09/21 06:31:51;;;;;;;5.75;3.38;;;6.60;99.90;;;;;;4999918;28;91751;-28
2022/09/21 06:34:17;;;;;;;6.32;2.45;;;6.60;99.90;;;;;;4999444;28;89824;-29
2022/09/21 06:36:44;;;;;;;7.88;1.90;;;6.70;99.90;;;;;;4999222;28;89496;-30
2022/09/21 06:39:10;;;;;;;2.60;1.73;;;6.70;99.90;;;;;;4999942;28;88264;-31
2022/09/21 06:41:36;;;;;;;5.75;2.33;;;6.80;99.90;;;;;;5000363;28;89937;-34
2022/09/21 06:44:02;;;;;;;2.55;2.25;;;6.80;99.90;;;;;;4999231;28;89618;-32
2022/09/21 06:46:27;;;;;;;2.47;2.08;;;6.90;99.90;;;;;;4999608;28;89344;-32
2022/09/21 06:48:53;;;;;;;4.32;2.03;;;6.90;99.90;;;;;;4999792;28;89533;-29
2022/09/21 06:51:20;;;;;;;6.57;2.83;;;7.00;99.90;;;;;;4999361;28;89980;-32
2022/09/21 06:53:46;;;;;;;4.60;1.80;;;7.10;99.90;;;;;;4998981;28;90765;-31
2022/09/21 06:56:12;;;;;;;2.35;1.80;;;7.30;99.90;;;;;;4999929;28;90572;-31
2022/09/21 06:58:38;;;;;;;7.07;2.28;;;7.40;99.90;;;;;;4982054;28;89620;-28
2022/09/21 07:01:11;;;;;;;2.72;1.98;;;7.50;99.90;;;;;;4999916;28;89587;-31
2022/09/21 07:03:39;;;;;;;6.60;2.78;;;7.60;99.90;;;;;;4999971;28;89045;-30
2022/09/21 07:06:05;;;;;;;8.10;3.90;;;7.70;99.90;;;;;;4999188;28;89434;-31
2022/09/21 07:08:31;;;;;;;2.88;2.38;;;7.80;99.90;;;;;;4999296;28;88979;-29
2022/09/21 07:10:58;;;;;;;6.10;2.60;;;8.00;99.90;;;;;;4999056;28;89320;-28
2022/09/21 07:13:25;;;;;;;3.03;2.63;;;8.20;99.90;;;;;;4998396;28;89450;-30
2022/09/21 07:15:51;;;;;;;4.57;2.70;;;8.30;99.90;;;;;;4998813;28;88967;-33
2022/09/21 07:18:16;;;;;;;8.52;2.63;;;8.50;99.90;;;;;;4998893;28;90080;-33
2022/09/21 07:20:42;;;;;;;3.15;1.83;;;8.70;99.90;;;;;;4999574;28;90683;-31
2022/09/21 07:23:15;;;;;;;5.47;2.25;;;8.90;99.90;;;;;;4998930;28;89813;-30
2022/09/21 07:25:43;;;;;;;4.80;2.35;;;9.10;99.90;;;;;;4999880;28;87549;-29
2022/09/21 07:28:09;;;;;;;3.15;1.35;;;9.30;99.90;;;;;;4999438;28;88633;-29
2022/09/21 07:30:37;;;;;;;5.57;1.70;;;9.50;99.90;;;;;;4998684;28;90532;-31
2022/09/21 07:33:03;;;;;;;5.67;2.13;;;9.70;99.90;;;;;;4999440;28;90224;-29
2022/09/21 07:35:29;;;;;;;5.50;1.90;;;9.80;99.90;;;;;;4999235;28;90157;-29
2022/09/21 07:37:57;;;;;;;6.97;2.05;;;9.90;99.90;;;;;;4999646;28;89749;-29
2022/09/21 07:40:23;;;;;;;12.57;2.33;;;10.20;99.90;;;;;;4998861;28;89234;-32
2022/09/21 07:42:48;;;;;;;14.50;2.53;;;10.40;99.90;;;;;;4996552;28;90373;-29
2022/09/21 07:45:14;;;;;;;3.05;2.58;;;10.60;99.90;;;;;;4996177;28;90825;-30
2022/09/21 07:47:40;;;;;;;10.27;3.42;;;10.70;99.90;;;;;;4997256;28;88848;-31
2022/09/21 07:50:05;;;;;;;3.42;2.03;;;10.80;99.90;;;;;;4996470;28;89101;-30
2022/09/21 07:52:31;;;;;;;4.72;2.67;;;11.10;99.90;;;;;;4996633;28;89694;-31
2022/09/21 07:54:57;;;;;;;6.00;3.42;;;11.20;99.90;;;;;;4990572;28;88975;-31
2022/09/21 08:00:08;;;;;;;8.10;3.58;;;11.60;99.90;;;;;;4990550;28;90374;-31
2022/09/21 08:02:33;;;;;;;12.75;3.25;;;11.70;99.90;;;;;;4994146;28;89755;-29
2022/09/21 08:04:59;;;;;;;8.30;2.67;;;12.00;99.90;;;;;;4996887;28;89342;-32
2022/09/21 08:07:26;;;;;;;9.90;2.85;;;12.10;99.90;;;;;;4995704;28;89325;-29
2022/09/21 08:09:52;;;;;;;4.00;2.13;;;12.30;99.90;;;;;;4996156;28;89745;-33
2022/09/21 08:12:19;;;;;;;7.25;2.75;;;12.40;99.90;;;;;;4997657;28;89803;-30
2022/09/21 08:14:45;;;;;;;3.70;2.13;;;12.50;99.90;;;;;;4996379;28;89506;-31
2022/09/21 08:17:11;;;;;;;11.13;3.05;;;12.70;99.90;;;;;;4997078;28;89256;-32
2022/09/21 08:19:37;;;;;;;12.10;2.92;;;12.80;99.90;;;;;;4996906;28;90865;-30
2022/09/21 08:22:02;;;;;;;9.00;1.83;;;12.90;99.90;;;;;;4996107;28;89939;-29
2022/09/21 08:24:30;;;;;;;16.27;3.03;;;13.10;99.90;;;;;;4996415;28;89803;-32
2022/09/21 08:26:56;;;;;;;4.05;2.15;;;13.20;99.90;;;;;;4997255;28;88439;-31
2022/09/21 08:29:25;;;;;;;5.07;1.95;;;13.40;99.90;;;;;;4995970;28;90961;-30
2022/09/21 08:31:52;;;;;;;4.05;2.15;;;13.40;99.90;;;;;;4995755;28;89799;-31
2022/09/21 08:34:18;;;;;;;6.85;2.55;;;13.50;99.90;;;;;;4996259;28;90490;-32
2022/09/21 08:36:45;;;;;;;4.07;2.25;;;13.60;99.90;;;;;;4996623;28;88902;-33
2022/09/21 08:39:11;;;;;;;5.53;2.88;;;13.70;99.90;;;;;;4996073;28;90476;-31
2022/09/21 08:41:59;;;;;;;4.18;2.42;;;13.90;99.90;;;;;;4996549;28;90008;-30
2022/09/21 08:44:32;;;;;;;4.95;2.05;;;14.00;99.90;;;;;;4985532;28;89476;-30
2022/09/21 08:47:20;;;;;;;5.15;2.15;;;14.10;99.90;;;;;;4996485;28;89895;-31
2022/09/21 08:49:52;;;;;;;4.15;2.47;;;14.20;99.90;;;;;;4995793;28;90190;-30
2022/09/21 08:52:20;;;;;;;3.05;1.42;;;14.30;99.90;;;;;;4996023;28;89788;-29
2022/09/21 08:54:53;;;;;;;8.27;2.75;;;14.40;99.90;;;;;;4996139;28;91031;-30
2022/09/21 08:57:21;;;;;;;4.05;2.35;;;14.50;99.90;;;;;;4995711;28;88931;-30
2022/09/21 08:59:48;;;;;;;6.43;1.58;;;14.60;99.90;;;;;;4997803;28;90310;-32
2022/09/21 09:02:14;;;;;;;4.47;1.90;;;14.60;99.90;;;;;;4999041;28;89268;-32
2022/09/21 09:04:49;;;;;;;8.68;2.17;;;14.70;99.90;;;;;;4999342;28;89343;-31
2022/09/21 09:07:32;;;;;;;4.22;1.50;;;14.80;99.90;;;;;;4999452;28;89658;-32
2022/09/21 09:10:37;;;;;;;7.15;2.08;;;14.90;99.90;;;;;;4999566;28;90264;-30
2022/09/21 09:13:38;;;;;;;6.10;1.45;;;14.90;99.90;;;;;;4999630;28;89842;-31
2022/09/21 09:16:19;;;;;;;1.95;1.33;;;15.00;99.90;;;;;;4999363;28;89374;-31
2022/09/21 09:18:56;;;;;;;3.20;1.33;;;15.10;99.90;;;;;;4998799;28;88004;-32
2022/09/21 09:21:28;;;;;;;4.38;1.30;;;15.20;99.90;;;;;;4998637;28;89825;-29
2022/09/21 09:24:02;;;;;;;4.00;1.77;;;15.30;99.90;;;;;;4998348;28;90561;-31
2022/09/21 09:26:34;;;;;;;3.42;1.65;;;15.50;99.90;;;;;;4998568;28;92072;-31
2022/09/21 09:29:05;;;;;;;3.83;1.73;;;15.60;99.90;;;;;;4999267;28;89113;-32
2022/09/21 09:31:34;;;;;;;7.97;2.33;;;15.70;99.90;;;;;;4999044;28;90642;-34
2022/09/21 09:34:09;;;;;;;;;;;15.90;99.90;;;;;;4999073;28;89888;-31
2022/09/21 09:36:38;;;;;;;7.85;2.70;;;16.00;99.90;;;;;;5000205;28;89143;-33
2022/09/21 09:39:12;;;;;;;6.55;1.42;;;16.10;99.90;;;;;;4999601;28;89032;-32
2022/09/21 09:41:57;;;;;;;5.55;1.23;;;16.00;99.90;;;;;;4999666;28;90844;-30
2022/09/21 09:44:59;;;;;;;4.65;1.15;;;15.90;99.90;;;;;;4999115;28;89156;-32
2022/09/21 09:48:06;;;;;;;1.92;1.15;;;16.00;99.90;;;;;;4998004;28;89572;-32
2022/09/21 09:50:38;;;;;;;2.40;1.38;;;16.20;99.90;;;;;;4998155;28;88031;-31
2022/09/21 09:53:14;;;;;;;7.05;1.50;;;16.40;99.90;;;;;;4998616;28;92007;-32
2022/09/21 09:55:49;;;;;;;4.07;1.60;;;16.60;99.90;;;;;;4998169;28;90728;-31
2022/09/21 09:58:44;;;;;;;6.78;2.03;;;16.70;99.90;;;;;;4981119;28;90499;-31
2022/09/21 10:01:37;;;;;;;4.88;1.40;;;16.80;99.90;;;;;;4992679;28;87982;-30
2022/09/21 10:04:12;;;;;;;2.60;1.45;;;16.90;99.90;;;;;;4998589;28;89697;-31
2022/09/21 10:06:38;;;;;;;1.15;1.05;;;16.90;99.90;;;;;;4998063;28;90809;-31
2022/09/21 10:09:32;;;;;;;3.65;1.48;;;17.00;99.90;;;;;;4998080;28;90110;-31
2022/09/21 10:12:14;;;;;;;2.92;1.15;;;16.90;99.90;;;;;;4997737;28;88865;-31
2022/09/21 10:14:49;;;;;;;5.18;1.83;;;16.70;99.90;;;;;;4998315;28;89982;-31
2022/09/21 10:17:17;;;;;;;4.30;1.05;;;16.50;99.90;;;;;;4997637;28;90108;-30
2022/09/21 10:19:43;;;;;;;4.55;1.30;;;16.50;99.90;;;;;;4997803;28;90326;-29
2022/09/21 10:22:18;;;;;;;3.08;1.05;;;16.40;99.90;;;;;;4998492;28;88372;-33
2022/09/21 10:24:51;;;;;;;6.97;1.40;;;16.30;99.90;;;;;;4996282;28;90198;-30
2022/09/21 10:27:41;;;;;;;1.70;1.60;;;16.20;99.90;;;;;;4997360;28;90018;-30
2022/09/21 10:30:29;;;;;;;5.93;1.58;;;16.20;99.90;;;;;;4997408;28;89394;-33
2022/09/21 10:32:56;;;;;;;;;;;16.00;99.90;;;;;;4963816;28;88920;-32
2022/09/21 10:35:23;;;;;;;5.78;2.17;;;15.80;99.90;;;;;;4999272;28;89986;-31
2022/09/21 10:38:15;;;;;;;0.70;0.70;;;15.70;99.90;;;;;;4997941;28;89764;-31
2022/09/21 10:40:42;;;;;;;3.40;1.08;;;15.40;99.90;;;;;;4997236;28;88743;-29
2022/09/21 10:43:33;;;;;;;3.77;1.30;;;15.30;99.90;;;;;;4998063;28;90507;-33
2022/09/21 10:45:59;;;;;;;1.63;1.20;;;15.20;99.90;;;;;;4997180;28;90385;-33
2022/09/21 10:48:26;;;;;;;5.97;1.83;;;15.10;99.90;;;;;;4979933;28;89044;-32
2022/09/21 10:50:54;;;;;;;5.95;1.60;;;15.00;99.90;;;;;;4996718;28;89527;-33
2022/09/21 10:53:27;;;;;;;3.85;1.67;;;15.00;99.90;;;;;;4997334;28;90285;-32
2022/09/21 10:56:05;;;;;;;3.90;1.35;;;15.00;99.90;;;;;;4996977;28;92273;-30
2022/09/21 10:58:32;;;;;;;2.58;1.33;;;15.00;99.90;;;;;;4997400;28;89804;-32
2022/09/21 11:01:21;;;;;;;4.78;1.40;;;15.00;99.90;;;;;;4997975;28;89443;-28
2022/09/21 11:04:24;;;;;;;2.83;1.05;;;14.90;99.90;;;;;;4997668;28;90155;-33
2022/09/21 11:07:12;;;;;;;2.55;1.33;;;14.80;99.90;;;;;;4972508;28;90190;-30
2022/09/21 11:09:37;;;;;;;;;;;14.70;99.90;;;;;;4997407;28;90442;-33
2022/09/21 11:12:12;;;;;;;3.53;2.15;;;14.70;99.90;;;;;;4980802;28;90065;-32
2022/09/21 11:15:15;;;;;;;2.00;0.85;;;14.60;99.90;;;;;;4997940;28;88496;-34
2022/09/21 11:17:45;;;;;;;3.92;1.75;;;14.70;99.90;;;;;;4997207;28;90100;-32
2022/09/21 11:20:20;;;;;;;2.17;0.95;;;14.60;99.90;;;;;;4997311;28;89969;-32
2022/09/21 11:23:32;;;;;;;2.58;1.02;;;14.60;99.90;;;;;;4996626;28;89542;-33
2022/09/21 11:26:16;;;;;;;4.85;2.22;;;14.60;99.90;;;;;;4997756;28;88800;-30
2022/09/21 11:29:00;;;;;;;3.67;1.65;;;14.70;99.90;;;;;;4996917;28;89800;-30
2022/09/21 11:32:14;;;;;;;7.32;1.35;;;14.80;99.90;;;;;;4997507;28;89859;-30
2022/09/21 11:35:01;;;;;;;4.63;1.63;;;15.00;99.90;;;;;;4983073;28;88824;-31
2022/09/21 11:37:43;;;;;;;5.72;2.25;;;15.30;99.90;;;;;;4997193;28;90171;-32
2022/09/21 11:40:27;;;;;;;5.07;1.50;;;15.50;99.90;;;;;;4997539;28;89712;-31
2022/09/21 11:42:58;;;;;;;4.00;2.65;;;15.80;99.90;;;;;;4996500;28;91088;-30
2022/09/21 11:46:04;;;;;;;6.35;1.38;;;16.00;99.90;;;;;;4996605;28;90171;-31
2022/09/21 11:49:07;;;;;;;2.58;1.25;;;16.20;99.90;;;;;;4997146;28;89211;-31
2022/09/21 11:52:02;;;;;;;3.78;1.50;;;16.30;99.90;;;;;;4997383;28;90163;-33
2022/09/21 11:54:39;;;;;;;4.35;1.88;;;16.30;99.90;;;;;;4983276;28;90037;-32
2022/09/21 11:57:30;;;;;;;1.50;1.40;;;16.40;99.90;;;;;;4996590;28;89406;-30
2022/09/21 12:00:16;;;;;;;4.38;1.10;;;16.60;99.90;;;;;;4997606;28;88222;-31
2022/09/21 12:03:07;;;;;;;6.53;1.40;;;16.70;99.90;;;;;;4996615;28;89409;-32
2022/09/21 12:06:01;;;;;;;4.53;1.15;;;16.60;99.90;;;;;;4996293;28;89531;-31
2022/09/21 12:08:53;;;;;;;2.55;1.33;;;16.40;99.90;;;;;;4996086;28;90771;-34
2022/09/21 12:11:31;;;;;;;3.35;1.20;;;16.40;99.90;;;;;;4979666;28;89030;-31
2022/09/21 12:14:03;;;;;;;3.05;1.67;;;16.50;99.90;;;;;;4997248;28;90118;-32
2022/09/21 12:16:51;;;;;;;6.07;1.33;;;16.60;99.90;;;;;;4996462;28;89955;-33
2022/09/21 12:19:38;;;;;;;1.90;0.90;;;16.70;99.90;;;;;;4996739;28;89153;-34
2022/09/21 12:22:19;;;;;;;2.67;1.08;;;16.80;99.90;;;;;;4997578;28;88192;-30
2022/09/21 12:24:56;;;;;;;1.58;1.17;;;16.90;99.90;;;;;;4997299;28;88960;-33
2022/09/21 12:27:31;;;;;;;4.43;1.92;;;17.00;99.90;;;;;;4996283;28;90049;-33
2022/09/21 12:30:05;;;;;;;2.78;1.20;;;17.00;99.90;;;;;;4978368;28;89928;-30
2022/09/21 12:32:55;;;;;;;2.65;1.15;;;17.10;99.90;;;;;;4996433;28;89375;-33
2022/09/21 12:35:21;;;;;;;1.83;1.08;;;17.30;99.90;;;;;;4998837;28;90723;-31
2022/09/21 12:38:00;;;;;;;2.22;1.17;;;17.30;99.90;;;;;;4999564;28;89612;-31
2022/09/21 12:40:48;;;;;;;2.80;1.23;;;17.30;99.90;;;;;;5000077;28;89543;-33
2022/09/21 12:43:41;;;;;;;2.90;1.08;;;17.40;99.90;;;;;;5028730;22;88618;-31
2022/09/21 12:46:13;;;;;;;1.80;0.82;;;17.30;99.90;;;;;;4988716;28;89832;-32
2022/09/21 12:48:41;;;;;;;1.95;1.20;;;17.10;99.90;;;;;;4999454;28;89690;-31
2022/09/21 12:51:24;;;;;;;2.35;1.23;;;17.00;99.90;;;;;;4999726;28;89588;-32
2022/09/21 12:53:52;;;;;;;4.57;1.25;;;17.00;99.90;;;;;;4981470;28;88472;-32
2022/09/21 12:56:40;;;;;;;2.28;1.10;;;17.00;99.90;;;;;;4972016;28;89747;-31
2022/09/21 12:59:51;;;;;;;7.85;2.10;;;17.10;99.90;;;;;;4969888;28;90901;-30
2022/09/21 13:02:35;;;;;;;2.03;1.35;;;17.10;99.90;;;;;;4958636;28;90796;-31
2022/09/21 13:05:10;;;;;;;2.70;0.88;;;17.10;99.90;;;;;;4981441;28;89967;-31
2022/09/21 13:07:59;;;;;;;3.20;1.52;;;17.00;99.90;;;;;;4992172;28;88828;-33
2022/09/21 13:10:45;;;;;;;6.47;1.35;;;17.00;99.90;;;;;;4981603;28;89676;-29
2022/09/21 13:13:44;;;;;;;5.38;1.27;;;17.00;99.90;;;;;;4994866;28;90032;-31
2022/09/21 13:16:39;;;;;;;8.90;2.00;;;16.90;99.90;;;;;;4963281;28;89088;-30
2022/09/21 13:19:22;;;;;;;2.63;0.90;;;16.90;99.90;;;;;;4967886;28;90204;-30
2022/09/21 13:22:23;;;;;;;2.72;1.40;;;16.80;99.90;;;;;;4979950;28;89378;-31
2022/09/21 13:25:02;;;;;;;0.95;0.90;;;16.70;99.90;;;;;;4978815;28;89280;-31
2022/09/21 13:28:08;;;;;;;2.58;1.20;;;16.70;99.90;;;;;;4978609;28;91230;-32
2022/09/21 13:30:38;;;;;;;4.97;1.45;;;16.50;99.90;;;;;;4989950;28;90020;-30